sensor_id;sensor_type;location;lat;lon;timestamp;pressure;altitude;pressure_sealevel;temperature;humidity
8286;BME280;4181;43.416;24.598;2023-03-03T00:01:07;100358.41;;;8.08;100.00
8286;BME280;4181;43.416;24.598;2023-03-03T00:03:32;100363.38;;;8.11;100.00
8286;BME280;4181;43.416;24.598;2023-03-03T00:05:58;100382.88;;;8.26;100.00
8286;BME280;4181;43.416;24.598;2023-03-03T00:08:25;100372.00;;;8.26;100.00
8286;BME280;4181;43.416;24.598;2023-03-03T00:10:51;100342.75;;;8.22;100.00
8286;BME280;4181;43.416;24.598;2023-03-03T00:13:24;100359.91;;;8.22;100.00
8286;BME280;4181;43.416;24.598;2023-03-03T00:15:51;100377.91;;;8.23;100.00
8286;BME280;4181;43.416;24.598;2023-03-03T00:18:36;100359.63;;;8.30;100.00
8286;BME280;4181;43.416;24.598;2023-03-03T00:21:18;100347.22;;;8.34;100.00
8286;BME280;4181;43.416;24.598;2023-03-03T00:23:46;100338.72;;;8.13;100.00
8286;BME280;4181;43.416;24.598;2023-03-03T00:26:34;100371.53;;;8.11;100.00
8286;BME280;4181;43.416;24.598;2023-03-03T00:29:02;100364.00;;;8.13;100.00
8286;BME280;4181;43.416;24.598;2023-03-03T00:31:44;100353.50;;;8.17;100.00
8286;BME280;4181;43.416;24.598;2023-03-03T00:36:41;100323.69;;;8.10;100.00
8286;BME280;4181;43.416;24.598;2023-03-03T00:39:21;100338.88;;;8.18;100.00
8286;BME280;4181;43.416;24.598;2023-03-03T00:41:50;100331.25;;;8.08;100.00
8286;BME280;4181;43.416;24.598;2023-03-03T00:47:24;100315.19;;;8.07;100.00
8286;BME280;4181;43.416;24.598;2023-03-03T00:49:51;100330.00;;;8.22;100.00
8286;BME280;4181;43.416;24.598;2023-03-03T00:52:18;100306.66;;;8.03;100.00
8286;BME280;4181;43.416;24.598;2023-03-03T00:54:45;100299.69;;;7.96;100.00
8286;BME280;4181;43.416;24.598;2023-03-03T00:57:11;100295.19;;;8.01;100.00
8286;BME280;4181;43.416;24.598;2023-03-03T00:59:39;100290.72;;;8.07;100.00
8286;BME280;4181;43.416;24.598;2023-03-03T01:02:05;100305.13;;;8.25;100.00
8286;BME280;4181;43.416;24.598;2023-03-03T01:04:31;100295.88;;;8.26;100.00
8286;BME280;4181;43.416;24.598;2023-03-03T01:06:56;100299.22;;;8.28;100.00
8286;BME280;4181;43.416;24.598;2023-03-03T01:09:22;100280.81;;;8.12;100.00
8286;BME280;4181;43.416;24.598;2023-03-03T01:11:49;100302.22;;;8.20;100.00
8286;BME280;4181;43.416;24.598;2023-03-03T01:14:15;100298.53;;;8.15;100.00
8286;BME280;4181;43.416;24.598;2023-03-03T01:16:40;100286.72;;;8.09;100.00
8286;BME280;4181;43.416;24.598;2023-03-03T01:19:06;100279.81;;;7.95;100.00
8286;BME280;4181;43.416;24.598;2023-03-03T01:21:32;100294.41;;;8.12;100.00
8286;BME280;4181;43.416;24.598;2023-03-03T01:23:58;100295.88;;;8.26;100.00
8286;BME280;4181;43.416;24.598;2023-03-03T01:26:23;100288.38;;;8.10;100.00
8286;BME280;4181;43.416;24.598;2023-03-03T01:28:48;100298.97;;;8.00;100.00
8286;BME280;4181;43.416;24.598;2023-03-03T01:31:14;100293.41;;;7.95;100.00
8286;BME280;4181;43.416;24.598;2023-03-03T01:33:39;100285.47;;;7.94;100.00
8286;BME280;4181;43.416;24.598;2023-03-03T01:36:05;100292.84;;;8.05;100.00
8286;BME280;4181;43.416;24.598;2023-03-03T01:38:35;100277.19;;;7.89;100.00
8286;BME280;4181;43.416;24.598;2023-03-03T01:41:01;100286.56;;;7.93;100.00
8286;BME280;4181;43.416;24.598;2023-03-03T01:43:28;100243.03;;;7.81;100.00
8286;BME280;4181;43.416;24.598;2023-03-03T01:48:28;100270.41;;;7.98;100.00
8286;BME280;4181;43.416;24.598;2023-03-03T01:51:05;100270.28;;;8.04;100.00
8286;BME280;4181;43.416;24.598;2023-03-03T01:53:42;100260.81;;;7.95;100.00
8286;BME280;4181;43.416;24.598;2023-03-03T01:56:09;100266.22;;;7.95;100.00
8286;BME280;4181;43.416;24.598;2023-03-03T01:58:40;100264.88;;;7.86;100.00
8286;BME280;4181;43.416;24.598;2023-03-03T02:01:13;100260.63;;;7.79;100.00
8286;BME280;4181;43.416;24.598;2023-03-03T02:03:40;100260.41;;;7.80;100.00
8286;BME280;4181;43.416;24.598;2023-03-03T02:06:11;100268.81;;;7.90;100.00
8286;BME280;4181;43.416;24.598;2023-03-03T02:08:53;100257.94;;;7.90;100.00
8286;BME280;4181;43.416;24.598;2023-03-03T02:11:21;100260.03;;;7.77;100.00
8286;BME280;4181;43.416;24.598;2023-03-03T02:13:47;100245.94;;;7.68;100.00
8286;BME280;4181;43.416;24.598;2023-03-03T02:16:13;100262.13;;;7.74;100.00
8286;BME280;4181;43.416;24.598;2023-03-03T02:18:38;100235.41;;;7.60;100.00
8286;BME280;4181;43.416;24.598;2023-03-03T02:21:21;100249.84;;;7.72;100.00
8286;BME280;4181;43.416;24.598;2023-03-03T02:24:15;100260.84;;;7.77;100.00
8286;BME280;4181;43.416;24.598;2023-03-03T02:26:43;100256.13;;;7.72;100.00
8286;BME280;4181;43.416;24.598;2023-03-03T02:29:10;100253.63;;;7.71;100.00
8286;BME280;4181;43.416;24.598;2023-03-03T02:31:36;100267.97;;;7.60;100.00
8286;BME280;4181;43.416;24.598;2023-03-03T02:34:03;100258.69;;;7.67;100.00
8286;BME280;4181;43.416;24.598;2023-03-03T02:36:31;100251.31;;;7.56;100.00
8286;BME280;4181;43.416;24.598;2023-03-03T02:39:13;100255.28;;;7.72;100.00
8286;BME280;4181;43.416;24.598;2023-03-03T02:42:01;100259.06;;;7.71;100.00
8286;BME280;4181;43.416;24.598;2023-03-03T02:44:31;100268.97;;;7.65;100.00
8286;BME280;4181;43.416;24.598;2023-03-03T02:46:57;100235.25;;;7.55;100.00
8286;BME280;4181;43.416;24.598;2023-03-03T02:49:26;100257.31;;;7.77;100.00
8286;BME280;4181;43.416;24.598;2023-03-03T02:51:53;100240.63;;;7.73;100.00
8286;BME280;4181;43.416;24.598;2023-03-03T02:54:21;100248.91;;;7.78;100.00
8286;BME280;4181;43.416;24.598;2023-03-03T02:56:47;100237.22;;;7.66;100.00
8286;BME280;4181;43.416;24.598;2023-03-03T02:59:12;100236.97;;;7.67;100.00
8286;BME280;4181;43.416;24.598;2023-03-03T03:01:38;100258.03;;;7.84;100.00
8286;BME280;4181;43.416;24.598;2023-03-03T03:04:07;100233.59;;;7.54;100.00
8286;BME280;4181;43.416;24.598;2023-03-03T03:06:33;100263.00;;;7.57;100.00
8286;BME280;4181;43.416;24.598;2023-03-03T03:08:58;100248.53;;;7.45;100.00
8286;BME280;4181;43.416;24.598;2023-03-03T03:11:25;100250.41;;;7.44;100.00
8286;BME280;4181;43.416;24.598;2023-03-03T03:13:50;100260.19;;;7.63;100.00
8286;BME280;4181;43.416;24.598;2023-03-03T03:16:17;100261.94;;;7.58;100.00
8286;BME280;4181;43.416;24.598;2023-03-03T03:18:43;100249.44;;;7.57;100.00
8286;BME280;4181;43.416;24.598;2023-03-03T03:21:11;100238.34;;;7.58;100.00
8286;BME280;4181;43.416;24.598;2023-03-03T03:23:38;100239.78;;;7.61;100.00
8286;BME280;4181;43.416;24.598;2023-03-03T03:26:04;100239.19;;;7.59;100.00
8286;BME280;4181;43.416;24.598;2023-03-03T03:28:29;100238.44;;;7.52;100.00
8286;BME280;4181;43.416;24.598;2023-03-03T03:30:55;100252.63;;;7.54;100.00
8286;BME280;4181;43.416;24.598;2023-03-03T03:33:20;100240.06;;;7.53;100.00
8286;BME280;4181;43.416;24.598;2023-03-03T03:35:47;100215.38;;;7.43;100.00
8286;BME280;4181;43.416;24.598;2023-03-03T03:38:13;100242.56;;;7.54;100.00
8286;BME280;4181;43.416;24.598;2023-03-03T03:40:39;100207.97;;;7.50;100.00
8286;BME280;4181;43.416;24.598;2023-03-03T03:43:05;100218.81;;;7.50;100.00
8286;BME280;4181;43.416;24.598;2023-03-03T03:45:30;100224.06;;;7.63;100.00
8286;BME280;4181;43.416;24.598;2023-03-03T03:47:56;100241.16;;;7.52;100.00
8286;BME280;4181;43.416;24.598;2023-03-03T03:50:21;100209.97;;;7.54;100.00
8286;BME280;4181;43.416;24.598;2023-03-03T03:52:47;100206.28;;;7.67;100.00
8286;BME280;4181;43.416;24.598;2023-03-03T03:55:12;100212.41;;;7.62;100.00
8286;BME280;4181;43.416;24.598;2023-03-03T03:57:39;100218.19;;;7.66;100.00
8286;BME280;4181;43.416;24.598;2023-03-03T04:00:05;100198.41;;;7.77;100.00
8286;BME280;4181;43.416;24.598;2023-03-03T04:02:31;100202.34;;;7.63;100.00
8286;BME280;4181;43.416;24.598;2023-03-03T04:04:56;100205.06;;;7.63;100.00
8286;BME280;4181;43.416;24.598;2023-03-03T04:07:22;100173.91;;;7.65;100.00
8286;BME280;4181;43.416;24.598;2023-03-03T04:09:48;100195.88;;;7.64;100.00
8286;BME280;4181;43.416;24.598;2023-03-03T04:12:14;100192.78;;;7.60;100.00
8286;BME280;4181;43.416;24.598;2023-03-03T04:14:39;100210.53;;;7.74;100.00
8286;BME280;4181;43.416;24.598;2023-03-03T04:17:05;100203.81;;;7.77;100.00
8286;BME280;4181;43.416;24.598;2023-03-03T04:19:30;100196.34;;;7.61;100.00
8286;BME280;4181;43.416;24.598;2023-03-03T04:21:55;100208.97;;;7.67;100.00
8286;BME280;4181;43.416;24.598;2023-03-03T04:24:21;100206.22;;;7.55;100.00
8286;BME280;4181;43.416;24.598;2023-03-03T04:26:46;100208.47;;;7.58;100.00
8286;BME280;4181;43.416;24.598;2023-03-03T04:29:12;100191.78;;;7.43;100.00
8286;BME280;4181;43.416;24.598;2023-03-03T04:31:37;100202.47;;;7.68;100.00
8286;BME280;4181;43.416;24.598;2023-03-03T04:34:03;100188.81;;;7.74;100.00
8286;BME280;4181;43.416;24.598;2023-03-03T04:36:28;100187.03;;;7.68;100.00
8286;BME280;4181;43.416;24.598;2023-03-03T04:38:54;100195.16;;;7.68;100.00
8286;BME280;4181;43.416;24.598;2023-03-03T04:41:19;100200.28;;;7.77;100.00
8286;BME280;4181;43.416;24.598;2023-03-03T04:43:45;100193.28;;;7.69;100.00
8286;BME280;4181;43.416;24.598;2023-03-03T04:46:10;100185.66;;;7.78;100.00
8286;BME280;4181;43.416;24.598;2023-03-03T04:48:36;100179.72;;;7.69;100.00
8286;BME280;4181;43.416;24.598;2023-03-03T04:51:03;100185.63;;;7.66;100.00
8286;BME280;4181;43.416;24.598;2023-03-03T04:53:29;100187.72;;;7.64;100.00
8286;BME280;4181;43.416;24.598;2023-03-03T04:55:54;100196.00;;;7.69;100.00
8286;BME280;4181;43.416;24.598;2023-03-03T04:58:20;100189.19;;;7.48;100.00
8286;BME280;4181;43.416;24.598;2023-03-03T05:00:46;100184.38;;;7.50;100.00
8286;BME280;4181;43.416;24.598;2023-03-03T05:03:17;100195.28;;;7.62;100.00
8286;BME280;4181;43.416;24.598;2023-03-03T05:05:45;100193.63;;;7.61;100.00
8286;BME280;4181;43.416;24.598;2023-03-03T05:08:11;100197.63;;;7.58;100.00
8286;BME280;4181;43.416;24.598;2023-03-03T05:10:37;100177.19;;;7.56;100.00
8286;BME280;4181;43.416;24.598;2023-03-03T05:13:03;100195.75;;;7.59;100.00
8286;BME280;4181;43.416;24.598;2023-03-03T05:15:29;100182.66;;;7.67;100.00
8286;BME280;4181;43.416;24.598;2023-03-03T05:17:54;100178.03;;;7.68;100.00
8286;BME280;4181;43.416;24.598;2023-03-03T05:20:21;100171.81;;;7.67;100.00
8286;BME280;4181;43.416;24.598;2023-03-03T05:22:47;100184.06;;;7.70;100.00
8286;BME280;4181;43.416;24.598;2023-03-03T05:25:12;100200.97;;;7.72;100.00
8286;BME280;4181;43.416;24.598;2023-03-03T05:27:38;100196.06;;;7.51;100.00
8286;BME280;4181;43.416;24.598;2023-03-03T05:30:04;100186.19;;;7.38;100.00
8286;BME280;4181;43.416;24.598;2023-03-03T05:32:30;100202.88;;;7.24;100.00
8286;BME280;4181;43.416;24.598;2023-03-03T05:34:56;100188.41;;;7.30;100.00
8286;BME280;4181;43.416;24.598;2023-03-03T05:37:22;100197.47;;;7.06;100.00
8286;BME280;4181;43.416;24.598;2023-03-03T05:39:48;100198.84;;;6.97;100.00
8286;BME280;4181;43.416;24.598;2023-03-03T05:42:14;100181.03;;;7.19;100.00
8286;BME280;4181;43.416;24.598;2023-03-03T05:44:40;100200.47;;;7.34;100.00
8286;BME280;4181;43.416;24.598;2023-03-03T05:47:05;100179.69;;;7.39;100.00
8286;BME280;4181;43.416;24.598;2023-03-03T05:49:34;100179.28;;;7.42;100.00
8286;BME280;4181;43.416;24.598;2023-03-03T05:52:00;100173.31;;;7.34;100.00
8286;BME280;4181;43.416;24.598;2023-03-03T05:54:25;100191.31;;;7.46;100.00
8286;BME280;4181;43.416;24.598;2023-03-03T05:56:52;100192.13;;;7.47;100.00
8286;BME280;4181;43.416;24.598;2023-03-03T05:59:18;100192.78;;;7.60;100.00
8286;BME280;4181;43.416;24.598;2023-03-03T06:01:44;100183.44;;;7.56;100.00
8286;BME280;4181;43.416;24.598;2023-03-03T06:04:09;100171.63;;;7.51;100.00
8286;BME280;4181;43.416;24.598;2023-03-03T06:06:41;100179.91;;;7.56;100.00
8286;BME280;4181;43.416;24.598;2023-03-03T06:09:06;100186.19;;;7.09;100.00
8286;BME280;4181;43.416;24.598;2023-03-03T06:11:32;100202.63;;;7.43;100.00
8286;BME280;4181;43.416;24.598;2023-03-03T06:14:00;100183.75;;;7.48;100.00
8286;BME280;4181;43.416;24.598;2023-03-03T06:16:26;100160.94;;;7.38;100.00
8286;BME280;4181;43.416;24.598;2023-03-03T06:18:51;100182.75;;;7.61;100.00
8286;BME280;4181;43.416;24.598;2023-03-03T06:21:17;100165.00;;;7.47;100.00
8286;BME280;4181;43.416;24.598;2023-03-03T06:23:42;100174.75;;;7.36;100.00
8286;BME280;4181;43.416;24.598;2023-03-03T06:26:08;100153.50;;;7.33;100.00
8286;BME280;4181;43.416;24.598;2023-03-03T06:28:33;100185.78;;;7.53;100.00
8286;BME280;4181;43.416;24.598;2023-03-03T06:30:59;100178.09;;;7.50;100.00
8286;BME280;4181;43.416;24.598;2023-03-03T06:33:25;100191.75;;;7.73;100.00
8286;BME280;4181;43.416;24.598;2023-03-03T06:35:51;100193.31;;;7.81;100.00
8286;BME280;4181;43.416;24.598;2023-03-03T06:38:18;100192.03;;;7.83;100.00
8286;BME280;4181;43.416;24.598;2023-03-03T06:40:44;100183.53;;;7.91;100.00
8286;BME280;4181;43.416;24.598;2023-03-03T06:43:10;100188.25;;;7.84;100.00
8286;BME280;4181;43.416;24.598;2023-03-03T06:45:35;100200.97;;;7.72;100.00
8286;BME280;4181;43.416;24.598;2023-03-03T06:48:01;100190.25;;;7.77;100.00
8286;BME280;4181;43.416;24.598;2023-03-03T06:50:27;100183.88;;;7.83;100.00
8286;BME280;4181;43.416;24.598;2023-03-03T06:53:06;100200.31;;;7.88;100.00
8286;BME280;4181;43.416;24.598;2023-03-03T06:55:47;100203.50;;;7.85;100.00
8286;BME280;4181;43.416;24.598;2023-03-03T06:58:17;100183.47;;;7.68;100.00
8286;BME280;4181;43.416;24.598;2023-03-03T07:00:49;100198.28;;;7.84;100.00
8286;BME280;4181;43.416;24.598;2023-03-03T07:03:21;100209.19;;;7.95;100.00
8286;BME280;4181;43.416;24.598;2023-03-03T07:05:47;100192.38;;;7.87;100.00
8286;BME280;4181;43.416;24.598;2023-03-03T07:08:19;100215.94;;;8.04;100.00
8286;BME280;4181;43.416;24.598;2023-03-03T07:10:45;100205.88;;;8.05;100.00
8286;BME280;4181;43.416;24.598;2023-03-03T07:13:17;100209.19;;;7.95;100.00
8286;BME280;4181;43.416;24.598;2023-03-03T07:15:43;100209.28;;;7.89;100.00
8286;BME280;4181;43.416;24.598;2023-03-03T07:18:36;100212.09;;;7.82;100.00
8286;BME280;4181;43.416;24.598;2023-03-03T07:23:41;100197.47;;;7.95;100.00
8286;BME280;4181;43.416;24.598;2023-03-03T07:26:20;100195.72;;;8.00;100.00
8286;BME280;4181;43.416;24.598;2023-03-03T07:28:55;100200.81;;;8.08;100.00
8286;BME280;4181;43.416;24.598;2023-03-03T07:31:33;100191.63;;;8.09;100.00
8286;BME280;4181;43.416;24.598;2023-03-03T07:34:01;100203.97;;;7.82;100.00
8286;BME280;4181;43.416;24.598;2023-03-03T07:36:30;100184.56;;;7.79;100.00
8286;BME280;4181;43.416;24.598;2023-03-03T07:39:01;100185.81;;;7.94;100.00
8286;BME280;4181;43.416;24.598;2023-03-03T07:41:29;100175.50;;;7.96;100.00
8286;BME280;4181;43.416;24.598;2023-03-03T07:44:27;100184.25;;;7.98;100.00
8286;BME280;4181;43.416;24.598;2023-03-03T07:46:55;100144.44;;;7.81;100.00
8286;BME280;4181;43.416;24.598;2023-03-03T07:49:27;100161.66;;;7.86;100.00
8286;BME280;4181;43.416;24.598;2023-03-03T07:51:58;100182.41;;;8.10;100.00
8286;BME280;4181;43.416;24.598;2023-03-03T07:54:34;100175.22;;;8.16;100.00
8286;BME280;4181;43.416;24.598;2023-03-03T07:59:34;100176.66;;;8.30;100.00
8286;BME280;4181;43.416;24.598;2023-03-03T08:02:00;100174.97;;;8.17;100.00
8286;BME280;4181;43.416;24.598;2023-03-03T08:06:56;100180.28;;;8.12;100.00
8286;BME280;4181;43.416;24.598;2023-03-03T08:09:35;100167.97;;;7.98;100.00
8286;BME280;4181;43.416;24.598;2023-03-03T08:14:37;100163.72;;;8.02;100.00
8286;BME280;4181;43.416;24.598;2023-03-03T08:19:44;100164.06;;;7.83;100.00
8286;BME280;4181;43.416;24.598;2023-03-03T08:22:17;100170.69;;;8.10;100.00
8286;BME280;4181;43.416;24.598;2023-03-03T08:24:42;100150.75;;;8.04;100.00
8286;BME280;4181;43.416;24.598;2023-03-03T08:27:08;100174.47;;;7.97;100.00
8286;BME280;4181;43.416;24.598;2023-03-03T08:29:33;100167.97;;;7.98;100.00
8286;BME280;4181;43.416;24.598;2023-03-03T08:31:59;100151.19;;;8.01;100.00
8286;BME280;4181;43.416;24.598;2023-03-03T08:34:24;100162.13;;;8.24;100.00
8286;BME280;4181;43.416;24.598;2023-03-03T08:36:50;100159.03;;;8.09;100.00
8286;BME280;4181;43.416;24.598;2023-03-03T08:39:15;100154.00;;;8.24;100.00
8286;BME280;4181;43.416;24.598;2023-03-03T08:41:41;100164.38;;;8.39;100.00
8286;BME280;4181;43.416;24.598;2023-03-03T08:44:10;100147.72;;;8.24;100.00
8286;BME280;4181;43.416;24.598;2023-03-03T08:46:36;100160.47;;;8.23;100.00
8286;BME280;4181;43.416;24.598;2023-03-03T08:49:02;100152.06;;;8.25;100.00
8286;BME280;4181;43.416;24.598;2023-03-03T08:51:27;100141.09;;;8.31;100.00
8286;BME280;4181;43.416;24.598;2023-03-03T08:53:53;100167.22;;;8.55;100.00
8286;BME280;4181;43.416;24.598;2023-03-03T08:56:19;100164.50;;;8.55;100.00
8286;BME280;4181;43.416;24.598;2023-03-03T08:58:45;100142.41;;;8.29;100.00
8286;BME280;4181;43.416;24.598;2023-03-03T09:01:13;100171.22;;;8.53;100.00
8286;BME280;4181;43.416;24.598;2023-03-03T09:03:38;100163.66;;;8.43;100.00
8286;BME280;4181;43.416;24.598;2023-03-03T09:06:04;100163.41;;;8.56;100.00
8286;BME280;4181;43.416;24.598;2023-03-03T09:08:29;100134.47;;;8.50;100.00
8286;BME280;4181;43.416;24.598;2023-03-03T09:10:55;100155.59;;;8.71;100.00
8286;BME280;4181;43.416;24.598;2023-03-03T09:13:20;100155.56;;;8.83;100.00
8286;BME280;4181;43.416;24.598;2023-03-03T09:15:47;100150.84;;;8.90;100.00
8286;BME280;4181;43.416;24.598;2023-03-03T09:18:17;100160.66;;;9.03;100.00
8286;BME280;4181;43.416;24.598;2023-03-03T09:20:52;100168.56;;;9.04;100.00
8286;BME280;4181;43.416;24.598;2023-03-03T09:23:40;100176.38;;;9.01;100.00
8286;BME280;4181;43.416;24.598;2023-03-03T09:28:54;100152.28;;;8.92;100.00
8286;BME280;4181;43.416;24.598;2023-03-03T09:31:26;100175.44;;;8.95;100.00
8286;BME280;4181;43.416;24.598;2023-03-03T09:33:52;100168.91;;;9.08;100.00
8286;BME280;4181;43.416;24.598;2023-03-03T09:36:29;100150.63;;;9.20;100.00
8286;BME280;4181;43.416;24.598;2023-03-03T09:39:11;100173.09;;;9.27;100.00
8286;BME280;4181;43.416;24.598;2023-03-03T09:50:16;100163.19;;;9.21;100.00
8286;BME280;4181;43.416;24.598;2023-03-03T09:53:06;100165.78;;;9.27;100.00
8286;BME280;4181;43.416;24.598;2023-03-03T09:58:29;100165.38;;;9.35;100.00
8286;BME280;4181;43.416;24.598;2023-03-03T10:01:12;100175.94;;;9.32;100.00
8286;BME280;4181;43.416;24.598;2023-03-03T10:06:32;100161.66;;;9.53;100.00
8286;BME280;4181;43.416;24.598;2023-03-03T10:14:25;100165.88;;;9.60;100.00
8286;BME280;4181;43.416;24.598;2023-03-03T10:19:35;100150.09;;;9.62;100.00
8286;BME280;4181;43.416;24.598;2023-03-03T10:22:31;100144.47;;;9.52;100.00
8286;BME280;4181;43.416;24.598;2023-03-03T10:49:47;100131.75;;;9.86;100.00
8286;BME280;4181;43.416;24.598;2023-03-03T10:52:28;100132.25;;;9.83;100.00
8286;BME280;4181;43.416;24.598;2023-03-03T11:00:32;100120.56;;;9.71;100.00
8286;BME280;4181;43.416;24.598;2023-03-03T11:06:01;100098.28;;;9.74;100.00
8286;BME280;4181;43.416;24.598;2023-03-03T11:13:52;100115.84;;;10.11;100.00
8286;BME280;4181;43.416;24.598;2023-03-03T11:35:23;100107.28;;;10.07;100.00
8286;BME280;4181;43.416;24.598;2023-03-03T11:40:51;100100.13;;;10.18;100.00
8286;BME280;4181;43.416;24.598;2023-03-03T11:43:33;100084.84;;;10.17;100.00
8286;BME280;4181;43.416;24.598;2023-03-03T11:46:13;100090.78;;;10.14;100.00
8286;BME280;4181;43.416;24.598;2023-03-03T11:49:27;100106.06;;;10.15;100.00
8286;BME280;4181;43.416;24.598;2023-03-03T11:57:49;100099.56;;;10.16;100.00
8286;BME280;4181;43.416;24.598;2023-03-03T12:03:02;100106.28;;;9.97;100.00
8286;BME280;4181;43.416;24.598;2023-03-03T12:14:17;100089.34;;;9.95;100.00
8286;BME280;4181;43.416;24.598;2023-03-03T12:20:13;100096.25;;;10.14;100.00
8286;BME280;4181;43.416;24.598;2023-03-03T12:22:56;100091.38;;;10.16;100.00
8286;BME280;4181;43.416;24.598;2023-03-03T12:25:41;100089.31;;;10.23;100.00
8286;BME280;4181;43.416;24.598;2023-03-03T12:33:53;100091.38;;;10.16;100.00
8286;BME280;4181;43.416;24.598;2023-03-03T12:41:53;100090.50;;;10.32;100.00
8286;BME280;4181;43.416;24.598;2023-03-03T12:47:48;100089.84;;;10.25;100.00
8286;BME280;4181;43.416;24.598;2023-03-03T12:56:05;100069.38;;;10.23;100.00
8286;BME280;4181;43.416;24.598;2023-03-03T12:58:50;100076.19;;;10.42;100.00
8286;BME280;4181;43.416;24.598;2023-03-03T13:01:42;100083.50;;;10.36;100.00
8286;BME280;4181;43.416;24.598;2023-03-03T13:15:35;100069.06;;;10.02;100.00
8286;BME280;4181;43.416;24.598;2023-03-03T13:21:25;100082.38;;;10.15;100.00
8286;BME280;4181;43.416;24.598;2023-03-03T13:27:06;100080.13;;;10.29;100.00
8286;BME280;4181;43.416;24.598;2023-03-03T13:29:44;100081.34;;;10.21;100.00
8286;BME280;4181;43.416;24.598;2023-03-03T13:32:22;100066.09;;;10.20;100.00
8286;BME280;4181;43.416;24.598;2023-03-03T13:35:01;100069.78;;;10.31;100.00
8286;BME280;4181;43.416;24.598;2023-03-03T13:42:48;100068.88;;;10.26;100.00
8286;BME280;4181;43.416;24.598;2023-03-03T13:52:53;100038.63;;;10.27;100.00
8286;BME280;4181;43.416;24.598;2023-03-03T13:56:37;100033.19;;;10.27;100.00
8286;BME280;4181;43.416;24.598;2023-03-03T13:58:44;100029.75;;;10.37;100.00
8286;BME280;4181;43.416;24.598;2023-03-03T14:01:25;100015.38;;;10.41;100.00
8286;BME280;4181;43.416;24.598;2023-03-03T14:06:40;100018.59;;;10.38;100.00
8286;BME280;4181;43.416;24.598;2023-03-03T14:16:50;100012.72;;;10.25;100.00
8286;BME280;4181;43.416;24.598;2023-03-03T14:38:45;100003.88;;;10.01;100.00
8286;BME280;4181;43.416;24.598;2023-03-03T14:43:37;99988.97;;;9.87;100.00
8286;BME280;4181;43.416;24.598;2023-03-03T14:48:51;100000.00;;;9.97;100.00
8286;BME280;4181;43.416;24.598;2023-03-03T14:51:47;99974.59;;;9.75;100.00
8286;BME280;4181;43.416;24.598;2023-03-03T15:00:24;99980.34;;;9.95;100.00
8286;BME280;4181;43.416;24.598;2023-03-03T15:05:25;99963.22;;;9.78;100.00
8286;BME280;4181;43.416;24.598;2023-03-03T15:08:08;99986.38;;;9.97;100.00
8286;BME280;4181;43.416;24.598;2023-03-03T15:10:44;99973.44;;;9.87;100.00
8286;BME280;4181;43.416;24.598;2023-03-03T15:16:17;99978.09;;;9.70;100.00
8286;BME280;4181;43.416;24.598;2023-03-03T15:21:32;99966.19;;;9.60;100.00
8286;BME280;4181;43.416;24.598;2023-03-03T15:27:00;99969.50;;;9.62;100.00
8286;BME280;4181;43.416;24.598;2023-03-03T15:29:39;99967.69;;;9.67;100.00
8286;BME280;4181;43.416;24.598;2023-03-03T15:32:26;99964.13;;;9.67;100.00
8286;BME280;4181;43.416;24.598;2023-03-03T15:34:57;99964.47;;;9.54;100.00
8286;BME280;4181;43.416;24.598;2023-03-03T15:37:38;99954.81;;;9.63;100.00
8286;BME280;4181;43.416;24.598;2023-03-03T15:45:50;99945.25;;;9.60;100.00
8286;BME280;4181;43.416;24.598;2023-03-03T15:48:48;99939.09;;;9.70;100.00
8286;BME280;4181;43.416;24.598;2023-03-03T15:54:41;99932.78;;;9.64;100.00
8286;BME280;4181;43.416;24.598;2023-03-03T15:57:21;99938.41;;;9.58;100.00
8286;BME280;4181;43.416;24.598;2023-03-03T16:00:32;99939.47;;;9.40;100.00
8286;BME280;4181;43.416;24.598;2023-03-03T16:03:10;99924.81;;;9.41;100.00
8286;BME280;4181;43.416;24.598;2023-03-03T16:05:48;99936.34;;;9.48;100.00
8286;BME280;4181;43.416;24.598;2023-03-03T16:08:22;99919.44;;;9.46;100.00
8286;BME280;4181;43.416;24.598;2023-03-03T16:23:47;99917.53;;;9.47;100.00
8286;BME280;4181;43.416;24.598;2023-03-03T16:32:04;99938.19;;;9.43;100.00
8286;BME280;4181;43.416;24.598;2023-03-03T16:42:31;99948.47;;;9.41;100.00
8286;BME280;4181;43.416;24.598;2023-03-03T16:45:20;99950.69;;;9.44;100.00
8286;BME280;4181;43.416;24.598;2023-03-03T16:50:30;99933.53;;;9.27;100.00
8286;BME280;4181;43.416;24.598;2023-03-03T16:53:12;99949.31;;;9.41;100.00
8286;BME280;4181;43.416;24.598;2023-03-03T17:04:33;99965.56;;;9.53;100.00
8286;BME280;4181;43.416;24.598;2023-03-03T17:07:18;99969.25;;;9.47;100.00
8286;BME280;4181;43.416;24.598;2023-03-03T17:15:50;99996.75;;;9.62;100.00
8286;BME280;4181;43.416;24.598;2023-03-03T17:24:35;99992.63;;;9.43;100.00
8286;BME280;4181;43.416;24.598;2023-03-03T17:31:04;100007.28;;;9.42;100.00
8286;BME280;4181;43.416;24.598;2023-03-03T17:33:18;100004.16;;;9.33;100.00
8286;BME280;4181;43.416;24.598;2023-03-03T17:39:01;100000.53;;;9.28;100.00
8286;BME280;4181;43.416;24.598;2023-03-03T17:42:00;99982.19;;;9.23;100.00
8286;BME280;4181;43.416;24.598;2023-03-03T17:44:36;100000.88;;;9.31;100.00
8286;BME280;4181;43.416;24.598;2023-03-03T17:47:08;100008.97;;;9.26;100.00
8286;BME280;4181;43.416;24.598;2023-03-03T17:52:22;99998.16;;;9.31;100.00
8286;BME280;4181;43.416;24.598;2023-03-03T18:12:11;99981.22;;;9.13;100.00
8286;BME280;4181;43.416;24.598;2023-03-03T18:14:32;99995.16;;;9.16;100.00
8286;BME280;4181;43.416;24.598;2023-03-03T18:17:18;99987.97;;;9.10;100.00
8286;BME280;4181;43.416;24.598;2023-03-03T18:22:50;99998.94;;;9.15;100.00
8286;BME280;4181;43.416;24.598;2023-03-03T18:26:06;100008.88;;;9.21;100.00
8286;BME280;4181;43.416;24.598;2023-03-03T18:28:18;99993.94;;;9.24;100.00
8286;BME280;4181;43.416;24.598;2023-03-03T18:30:56;99991.78;;;9.26;100.00
8286;BME280;4181;43.416;24.598;2023-03-03T18:33:43;99991.97;;;9.36;100.00
8286;BME280;4181;43.416;24.598;2023-03-03T18:38:57;100009.69;;;9.38;100.00
8286;BME280;4181;43.416;24.598;2023-03-03T18:41:29;100014.53;;;9.20;100.00